createdAt,value
2023-01-06T00:01:19.886Z,10.35
2023-01-06T00:03:51.613Z,9.68
2023-01-06T00:06:22.999Z,10.65
2023-01-06T00:08:51.362Z,11.63
2023-01-06T00:11:21.016Z,11.57
2023-01-06T00:13:49.640Z,13.50
2023-01-06T00:16:20.104Z,17.30
2023-01-06T00:18:48.859Z,11.60
2023-01-06T00:21:17.694Z,16.55
2023-01-06T00:23:46.044Z,20.63
2023-01-06T00:26:14.320Z,12.77
2023-01-06T00:28:44.727Z,12.52
2023-01-06T00:31:15.697Z,14.10
2023-01-06T00:33:44.883Z,15.52
2023-01-06T00:36:14.871Z,14.75
2023-01-06T00:38:44.160Z,15.18
2023-01-06T00:41:32.821Z,12.27
2023-01-06T00:44:03.347Z,12.00
2023-01-06T00:46:34.211Z,13.32
2023-01-06T00:49:05.513Z,12.77
2023-01-06T00:51:36.437Z,12.52
2023-01-06T00:54:05.059Z,14.85
2023-01-06T00:56:33.714Z,11.50
2023-01-06T00:59:04.182Z,10.70
2023-01-06T01:01:32.786Z,10.25
2023-01-06T01:04:01.599Z,11.57
2023-01-06T01:06:30.085Z,10.27
2023-01-06T01:09:00.726Z,11.30
2023-01-06T01:11:47.609Z,15.02
2023-01-06T01:14:19.886Z,14.00
2023-01-06T01:16:48.635Z,12.13
2023-01-06T01:19:18.310Z,8.82
2023-01-06T01:21:47.092Z,9.68
2023-01-06T01:24:16.281Z,10.40
2023-01-06T01:26:44.630Z,11.27
2023-01-06T01:29:14.860Z,10.57
2023-01-06T01:31:45.102Z,12.10
2023-01-06T01:34:16.588Z,12.88
2023-01-06T01:39:16.925Z,9.80
2023-01-06T01:44:55.979Z,15.43
2023-01-06T01:47:39.649Z,13.82
2023-01-06T01:50:20.500Z,11.35
2023-01-06T01:52:54.419Z,8.35
2023-01-06T01:55:23.763Z,9.38
2023-01-06T01:57:57.812Z,14.82
2023-01-06T02:00:26.156Z,9.45
2023-01-06T02:02:57.311Z,9.73
2023-01-06T02:05:28.507Z,13.70
2023-01-06T02:07:58.449Z,12.38
2023-01-06T02:10:26.931Z,10.63
2023-01-06T02:13:01.066Z,8.05
2023-01-06T02:15:33.363Z,9.00
2023-01-06T02:18:39.275Z,8.15
2023-01-06T02:21:41.117Z,9.57
2023-01-06T02:24:57.835Z,10.45
2023-01-06T02:28:17.030Z,9.05
2023-01-06T02:31:54.727Z,11.52
2023-01-06T02:34:39.808Z,8.90
2023-01-06T02:37:20.556Z,10.07
2023-01-06T02:40:07.344Z,11.45
2023-01-06T02:42:46.063Z,7.00
2023-01-06T02:45:22.923Z,8.38
2023-01-06T02:48:02.694Z,10.75
2023-01-06T02:50:41.608Z,11.05
2023-01-06T02:53:19.506Z,10.85
2023-01-06T02:55:52.227Z,8.32
2023-01-06T02:58:31.437Z,8.52
2023-01-06T03:01:05.776Z,8.10
2023-01-06T03:03:39.518Z,6.45
2023-01-06T03:06:13.217Z,8.45
2023-01-06T03:08:42.530Z,9.80
2023-01-06T03:11:11.140Z,9.52
2023-01-06T03:13:45.864Z,7.68
2023-01-06T03:16:15.360Z,11.52
2023-01-06T03:18:46.758Z,9.73
2023-01-06T03:21:22.321Z,10.02
2023-01-06T03:23:50.987Z,10.57
2023-01-06T03:26:19.597Z,11.27
2023-01-06T03:28:48.375Z,9.43
2023-01-06T03:31:28.404Z,13.65
2023-01-06T03:34:08.578Z,8.05
2023-01-06T03:36:50.647Z,8.60
2023-01-06T03:39:25.029Z,9.45
2023-01-06T03:42:35.166Z,9.75
2023-01-06T03:45:16.221Z,7.43
2023-01-06T03:47:53.700Z,10.02
2023-01-06T03:50:31.373Z,7.97
2023-01-06T03:53:15.285Z,9.82
2023-01-06T03:55:48.471Z,9.13
2023-01-06T03:58:19.081Z,9.15
2023-01-06T04:00:48.375Z,9.30
2023-01-06T04:03:18.136Z,7.82
2023-01-06T04:05:48.464Z,10.35
2023-01-06T04:08:16.873Z,8.23
2023-01-06T04:10:45.193Z,9.05
2023-01-06T04:13:12.525Z,9.45
2023-01-06T04:15:40.911Z,8.18
2023-01-06T04:18:10.230Z,10.98
2023-01-06T04:20:41.164Z,7.97
2023-01-06T04:23:26.236Z,10.32
2023-01-06T04:25:54.722Z,6.65
2023-01-06T04:28:35.613Z,5.60
2023-01-06T04:31:04.367Z,6.25
2023-01-06T04:33:35.721Z,7.55
2023-01-06T04:36:08.104Z,8.75
2023-01-06T04:38:38.649Z,5.57
2023-01-06T04:41:07.023Z,7.47
2023-01-06T04:43:35.346Z,6.18
2023-01-06T04:46:03.915Z,5.45
2023-01-06T04:48:32.308Z,11.68
2023-01-06T04:51:04.718Z,5.97
2023-01-06T04:53:35.679Z,5.93
2023-01-06T04:56:07.028Z,6.00
2023-01-06T04:58:35.811Z,8.82
2023-01-06T05:01:05.721Z,7.97
2023-01-06T05:03:35.079Z,6.35
2023-01-06T05:06:04.464Z,7.05
2023-01-06T05:08:33.454Z,8.00
2023-01-06T05:11:02.886Z,7.65
2023-01-06T05:13:33.928Z,6.28
2023-01-06T05:16:02.632Z,6.57
2023-01-06T05:18:30.961Z,6.28
2023-01-06T05:20:59.432Z,8.07
2023-01-06T05:23:27.779Z,6.60
2023-01-06T05:25:56.239Z,5.43
2023-01-06T05:28:24.756Z,8.18
2023-01-06T05:30:54.634Z,9.10
2023-01-06T05:33:23.013Z,8.15
2023-01-06T05:35:51.290Z,7.55
2023-01-06T05:38:19.637Z,6.28
2023-01-06T05:40:52.649Z,6.57
2023-01-06T05:43:21.148Z,7.50
2023-01-06T05:45:49.476Z,8.55
2023-01-06T05:48:19.522Z,5.90
2023-01-06T05:50:47.874Z,6.18
2023-01-06T05:53:16.450Z,7.15
2023-01-06T05:55:44.854Z,7.40
2023-01-06T05:58:13.123Z,5.90
2023-01-06T06:00:41.455Z,7.18
2023-01-06T06:03:09.901Z,8.15
2023-01-06T06:05:39.666Z,7.82
2023-01-06T06:08:09.339Z,6.67
2023-01-06T06:10:37.787Z,9.23
2023-01-06T06:13:06.103Z,6.03
2023-01-06T06:15:34.501Z,5.28
2023-01-06T06:18:03.335Z,6.05
2023-01-06T06:20:32.342Z,7.53
2023-01-06T06:23:02.086Z,6.35
2023-01-06T06:25:30.939Z,8.15
2023-01-06T06:27:59.779Z,7.03
2023-01-06T06:30:28.163Z,7.80
2023-01-06T06:32:56.422Z,7.57
2023-01-06T06:35:24.712Z,6.75
2023-01-06T06:37:55.327Z,9.07
2023-01-06T06:40:25.013Z,7.03
2023-01-06T06:42:53.723Z,10.73
2023-01-06T06:45:22.015Z,12.68
2023-01-06T06:47:50.380Z,10.43
2023-01-06T06:50:18.756Z,11.98
2023-01-06T06:52:47.154Z,8.80
2023-01-06T06:55:15.633Z,14.13
2023-01-06T06:57:45.268Z,14.75
2023-01-06T07:00:15.144Z,17.58
2023-01-06T07:02:44.515Z,18.35
2023-01-06T07:05:12.805Z,21.35
2023-01-06T07:07:41.177Z,16.67
2023-01-06T07:10:12.465Z,22.45
2023-01-06T07:12:40.832Z,20.02
2023-01-06T07:15:12.212Z,19.13
2023-01-06T07:17:41.743Z,28.55
2023-01-06T07:20:11.664Z,21.13
2023-01-06T07:22:40.659Z,24.58
2023-01-06T07:25:11.071Z,27.17
2023-01-06T07:27:39.497Z,29.95
2023-01-06T07:30:11.043Z,27.85
2023-01-06T07:32:39.525Z,39.72
2023-01-06T07:35:08.937Z,34.05
2023-01-06T07:37:37.272Z,29.33
2023-01-06T07:40:07.100Z,38.50
2023-01-06T07:42:37.310Z,27.83
2023-01-06T07:45:07.365Z,38.63
2023-01-06T07:47:37.415Z,28.55
2023-01-06T07:50:07.646Z,33.97
2023-01-06T07:52:36.047Z,30.20
2023-01-06T07:55:05.066Z,25.70
2023-01-06T07:57:33.483Z,25.73
2023-01-06T08:00:01.810Z,20.20
2023-01-06T08:02:41.731Z,15.65
2023-01-06T08:05:10.556Z,20.42
2023-01-06T08:07:38.871Z,12.93
2023-01-06T08:10:09.561Z,15.73
2023-01-06T08:15:08.036Z,14.15
2023-01-06T08:17:36.674Z,14.13
2023-01-06T08:20:07.819Z,11.95
2023-01-06T08:22:36.159Z,10.68
2023-01-06T08:25:04.543Z,12.50
2023-01-06T08:27:32.925Z,12.73
2023-01-06T08:30:01.503Z,14.98
2023-01-06T08:32:29.874Z,20.23
2023-01-06T08:34:58.228Z,11.75
2023-01-06T08:37:29.175Z,13.95
2023-01-06T08:39:58.197Z,12.23
2023-01-06T08:42:26.539Z,13.23
2023-01-06T08:44:55.183Z,11.85
2023-01-06T08:47:23.584Z,8.82
2023-01-06T08:49:52.041Z,15.93
2023-01-06T08:52:20.660Z,15.95
2023-01-06T08:54:50.450Z,11.73
2023-01-06T08:57:18.840Z,14.60
2023-01-06T08:59:47.767Z,12.18
2023-01-06T09:02:16.136Z,10.63
2023-01-06T09:04:44.794Z,12.52
2023-01-06T09:07:13.251Z,14.30
2023-01-06T09:09:41.593Z,10.75
2023-01-06T09:12:11.459Z,15.15
2023-01-06T09:14:39.908Z,10.03
2023-01-06T09:17:08.164Z,8.20
2023-01-06T09:19:36.527Z,13.13
2023-01-06T09:22:05.107Z,15.40
2023-01-06T09:24:33.465Z,12.57
2023-01-06T09:27:01.852Z,10.68
2023-01-06T09:29:31.918Z,10.48
2023-01-06T09:32:00.293Z,10.10
2023-01-06T09:34:28.647Z,12.23
2023-01-06T09:36:57.463Z,9.13
2023-01-06T09:39:25.807Z,10.65
2023-01-06T09:42:21.059Z,9.48
2023-01-06T09:44:56.321Z,9.32
2023-01-06T09:47:30.537Z,8.73
2023-01-06T09:50:05.592Z,8.57
2023-01-06T09:52:39.056Z,7.97
2023-01-06T09:55:13.154Z,9.18
2023-01-06T09:57:46.955Z,9.73
2023-01-06T10:00:30.129Z,7.57
2023-01-06T10:02:58.563Z,11.18
2023-01-06T10:05:39.795Z,8.48
2023-01-06T10:08:19.100Z,8.75
2023-01-06T10:10:59.413Z,9.57
2023-01-06T10:13:43.026Z,7.65
2023-01-06T10:16:23.265Z,6.72
2023-01-06T10:19:00.266Z,9.60
2023-01-06T10:21:35.089Z,10.13
2023-01-06T10:24:33.157Z,12.10
2023-01-06T10:27:19.535Z,8.93
2023-01-06T10:29:52.541Z,9.05
2023-01-06T10:32:24.023Z,9.27
2023-01-06T10:34:53.161Z,14.05
2023-01-06T10:37:26.012Z,10.07
2023-01-06T10:40:03.592Z,11.23
2023-01-06T10:42:56.552Z,9.32
2023-01-06T10:45:29.026Z,13.02
2023-01-06T10:48:00.571Z,10.88
2023-01-06T10:50:29.471Z,9.07
2023-01-06T10:52:57.756Z,9.93
2023-01-06T10:55:43.955Z,12.00
2023-01-06T10:58:24.199Z,7.68
2023-01-06T11:01:10.442Z,7.82
2023-01-06T11:03:42.803Z,10.38
2023-01-06T11:06:21.563Z,8.27
2023-01-06T11:08:50.039Z,9.65
2023-01-06T11:11:29.258Z,6.93
2023-01-06T11:14:05.068Z,7.38
2023-01-06T11:16:38.097Z,8.43
2023-01-06T11:19:22.505Z,10.40
2023-01-06T11:21:50.863Z,7.28
2023-01-06T11:24:22.772Z,9.20
2023-01-06T11:26:57.142Z,7.55
2023-01-06T11:29:32.641Z,12.20
2023-01-06T11:32:06.895Z,10.65
2023-01-06T11:34:36.800Z,11.10
2023-01-06T11:37:06.113Z,26.77
2023-01-06T11:39:37.651Z,10.10
2023-01-06T11:42:14.205Z,10.57
2023-01-06T11:44:43.852Z,8.93
2023-01-06T11:47:17.390Z,9.13
2023-01-06T11:49:51.801Z,13.38
2023-01-06T11:52:24.998Z,13.20
2023-01-06T11:55:02.814Z,12.10
2023-01-06T11:57:41.625Z,10.27
2023-01-06T12:00:38.143Z,14.88
2023-01-06T12:03:16.404Z,10.15
2023-01-06T12:05:53.248Z,10.73
2023-01-06T12:08:25.710Z,10.85
2023-01-06T12:10:59.984Z,13.02
2023-01-06T12:13:28.464Z,9.85
2023-01-06T12:16:06.274Z,7.38
2023-01-06T12:18:36.936Z,7.70
2023-01-06T12:23:39.188Z,11.23
2023-01-06T12:26:16.916Z,10.93
2023-01-06T12:28:48.618Z,7.72
2023-01-06T12:31:25.341Z,7.72
2023-01-06T12:33:59.021Z,9.75
2023-01-06T12:36:38.937Z,9.32
2023-01-06T12:39:13.838Z,8.45
2023-01-06T12:41:49.169Z,8.95
2023-01-06T12:44:31.887Z,6.30
2023-01-06T12:47:07.050Z,9.30
2023-01-06T12:49:43.337Z,10.13
2023-01-06T12:52:20.607Z,8.65
2023-01-06T12:54:54.192Z,10.45
2023-01-06T12:57:50.511Z,9.25
2023-01-06T13:00:39.821Z,8.50
2023-01-06T13:03:31.536Z,15.05
2023-01-06T13:06:18.180Z,6.60
2023-01-06T13:09:13.048Z,8.48
2023-01-06T13:12:08.454Z,6.57
2023-01-06T13:14:45.943Z,9.13
2023-01-06T13:17:23.154Z,8.65
2023-01-06T13:19:54.235Z,7.75
2023-01-06T13:22:37.388Z,8.75
2023-01-06T13:25:35.580Z,10.40
2023-01-06T13:28:13.225Z,8.63
2023-01-06T13:31:20.650Z,8.88
2023-01-06T13:34:28.123Z,9.38
2023-01-06T13:37:29.459Z,10.88
2023-01-06T13:40:02.444Z,8.02
2023-01-06T13:42:40.229Z,9.77
2023-01-06T13:45:17.676Z,9.90
2023-01-06T13:47:48.145Z,7.53
2023-01-06T13:50:19.749Z,7.55
2023-01-06T13:52:49.308Z,7.82
2023-01-06T13:55:30.176Z,11.38
2023-01-06T13:58:36.911Z,7.75
2023-01-06T14:01:11.869Z,7.40
2023-01-06T14:03:42.748Z,8.85
2023-01-06T14:08:49.949Z,10.15
2023-01-06T14:11:27.625Z,6.32
2023-01-06T14:13:59.816Z,9.73
2023-01-06T14:16:44.400Z,5.47
2023-01-06T14:19:19.241Z,12.77
2023-01-06T14:21:49.085Z,6.07
2023-01-06T14:24:28.255Z,9.70
2023-01-06T14:27:01.041Z,11.40
2023-01-06T14:30:04.941Z,8.63
2023-01-06T14:33:26.203Z,11.68
2023-01-06T14:36:05.293Z,10.27
2023-01-06T14:38:42.437Z,11.20
2023-01-06T14:41:22.431Z,6.53
2023-01-06T14:43:56.725Z,7.90
2023-01-06T14:46:31.564Z,10.68
2023-01-06T14:49:03.495Z,12.95
2023-01-06T14:51:34.489Z,8.25
2023-01-06T14:54:06.712Z,10.77
2023-01-06T14:56:35.602Z,9.32
2023-01-06T14:59:13.162Z,11.27
2023-01-06T15:01:45.174Z,11.13
2023-01-06T15:04:25.787Z,12.15
2023-01-06T15:07:00.508Z,10.93
2023-01-06T15:09:29.281Z,9.23
2023-01-06T15:11:57.828Z,9.13
2023-01-06T15:14:28.473Z,9.35
2023-01-06T15:17:03.272Z,17.95
2023-01-06T15:19:32.161Z,13.27
2023-01-06T15:22:02.424Z,11.68
2023-01-06T15:24:32.748Z,11.40
2023-01-06T15:27:07.404Z,17.90
2023-01-06T15:29:36.815Z,14.32
2023-01-06T15:32:11.990Z,14.25
2023-01-06T15:34:46.494Z,9.23
2023-01-06T15:37:20.619Z,11.18
2023-01-06T15:39:49.907Z,12.57
2023-01-06T15:42:23.168Z,14.77
2023-01-06T15:44:59.604Z,11.73
2023-01-06T15:47:34.732Z,16.67
2023-01-06T15:50:08.224Z,16.63
2023-01-06T15:52:39.973Z,15.30
2023-01-06T15:55:21.468Z,12.25
2023-01-06T15:57:57.121Z,15.55
2023-01-06T16:00:28.865Z,14.60
2023-01-06T16:02:59.322Z,12.55
2023-01-06T16:05:42.575Z,11.38
2023-01-06T16:08:24.413Z,18.35
2023-01-06T16:11:13.289Z,18.90
2023-01-06T16:13:42.105Z,13.57
2023-01-06T16:16:28.534Z,12.80
2023-01-06T16:18:58.819Z,14.32
2023-01-06T16:21:30.376Z,10.77
2023-01-06T16:24:00.352Z,13.55
2023-01-06T16:26:31.240Z,13.63
2023-01-06T16:29:02.668Z,12.73
2023-01-06T16:31:34.381Z,12.30
2023-01-06T16:34:27.732Z,13.10
2023-01-06T16:36:58.212Z,16.00
2023-01-06T16:39:28.161Z,13.18
2023-01-06T16:42:42.354Z,11.38
2023-01-06T16:45:27.572Z,10.80
2023-01-06T16:47:56.559Z,15.20
2023-01-06T16:50:34.264Z,10.63
2023-01-06T16:53:11.729Z,12.35
2023-01-06T16:55:42.261Z,14.23
2023-01-06T16:58:18.095Z,11.68
2023-01-06T17:00:51.631Z,15.38
2023-01-06T17:03:22.849Z,13.02
2023-01-06T17:05:53.856Z,11.55
2023-01-06T17:08:28.558Z,11.52
2023-01-06T17:10:57.974Z,11.43
2023-01-06T17:13:39.713Z,18.80
2023-01-06T17:16:16.852Z,14.07
2023-01-06T17:18:55.349Z,11.32
2023-01-06T17:21:29.820Z,12.25
2023-01-06T17:24:03.537Z,20.20
2023-01-06T17:26:32.057Z,12.43
2023-01-06T17:29:02.155Z,14.15
2023-01-06T17:31:37.678Z,14.35
2023-01-06T17:34:15.450Z,13.25
2023-01-06T17:36:48.290Z,14.73
2023-01-06T17:39:21.312Z,14.55
2023-01-06T17:41:50.225Z,12.98
2023-01-06T17:44:20.812Z,13.50
2023-01-06T17:46:49.576Z,17.92
2023-01-06T17:49:35.842Z,13.90
2023-01-06T17:52:17.029Z,10.98
2023-01-06T17:55:12.244Z,13.90
2023-01-06T17:57:45.574Z,18.88
2023-01-06T18:00:24.239Z,17.42
2023-01-06T18:02:57.582Z,17.70
2023-01-06T18:06:21.516Z,15.43
2023-01-06T18:08:55.498Z,14.70
2023-01-06T18:11:30.871Z,16.83
2023-01-06T18:14:25.353Z,15.60
2023-01-06T18:16:56.779Z,14.98
2023-01-06T18:19:35.438Z,13.45
2023-01-06T18:22:13.476Z,13.90
2023-01-06T18:24:44.217Z,14.77
2023-01-06T18:29:47.851Z,14.00
2023-01-06T18:32:29.878Z,13.63
2023-01-06T18:34:59.793Z,16.00
2023-01-06T18:37:31.303Z,15.75
2023-01-06T18:40:03.815Z,16.00
2023-01-06T18:42:35.364Z,18.23
2023-01-06T18:45:19.468Z,19.70
2023-01-06T18:47:55.392Z,19.60
2023-01-06T18:50:34.652Z,20.42
2023-01-06T18:53:06.891Z,20.40
2023-01-06T18:55:40.226Z,19.00
2023-01-06T18:58:23.485Z,19.50
2023-01-06T19:00:57.164Z,18.20
2023-01-06T19:03:38.483Z,19.95
2023-01-06T19:06:35.748Z,20.63
2023-01-06T19:09:24.036Z,19.60
2023-01-06T19:12:03.159Z,20.00
2023-01-06T19:14:37.682Z,19.38
2023-01-06T19:17:18.282Z,19.08
2023-01-06T19:19:46.867Z,19.17
2023-01-06T19:22:23.253Z,17.30
2023-01-06T19:24:58.605Z,17.65
2023-01-06T19:27:42.421Z,15.18
2023-01-06T19:30:41.344Z,14.90
2023-01-06T19:33:44.615Z,14.15
2023-01-06T19:36:49.341Z,16.33
2023-01-06T19:39:31.654Z,15.75
2023-01-06T19:42:13.564Z,13.77
2023-01-06T19:44:43.326Z,14.57
2023-01-06T19:47:19.662Z,14.60
2023-01-06T19:49:53.137Z,14.43
2023-01-06T19:52:40.348Z,15.15
2023-01-06T19:55:21.221Z,15.75
2023-01-06T19:57:53.737Z,15.05
2023-01-06T20:00:31.037Z,14.38
2023-01-06T20:03:03.388Z,15.90
2023-01-06T20:05:32.863Z,15.45
2023-01-06T20:08:01.233Z,17.00
2023-01-06T20:10:29.852Z,16.13
2023-01-06T20:12:58.173Z,17.48
2023-01-06T20:15:27.870Z,18.67
2023-01-06T20:17:56.210Z,17.70
2023-01-06T20:20:24.621Z,17.27
2023-01-06T20:22:53.068Z,18.33
2023-01-06T20:25:21.785Z,19.00
2023-01-06T20:27:50.152Z,19.85
2023-01-06T20:30:18.891Z,20.00
2023-01-06T20:32:48.706Z,20.05
2023-01-06T20:35:17.409Z,19.87
2023-01-06T20:37:45.950Z,19.33
2023-01-06T20:40:14.516Z,19.98
2023-01-06T20:42:42.914Z,19.13
2023-01-06T20:45:12.554Z,19.45
2023-01-06T20:47:41.845Z,19.83
2023-01-06T20:50:14.405Z,18.25
2023-01-06T20:52:43.327Z,18.75
2023-01-06T20:55:11.741Z,18.55
2023-01-06T20:57:40.209Z,18.90
2023-01-06T21:00:10.941Z,18.38
2023-01-06T21:05:08.965Z,18.85
2023-01-06T21:07:38.785Z,18.67
2023-01-06T21:10:08.301Z,20.17
2023-01-06T21:12:36.813Z,20.50
2023-01-06T21:15:06.244Z,21.20
2023-01-06T21:17:35.010Z,20.85
2023-01-06T21:20:03.662Z,21.70
2023-01-06T21:22:32.295Z,23.48
2023-01-06T21:25:02.301Z,23.30
2023-01-06T21:27:30.711Z,22.35
2023-01-06T21:29:59.068Z,22.73
2023-01-06T21:32:27.684Z,22.77
2023-01-06T21:34:56.019Z,21.42
2023-01-06T21:37:24.357Z,21.50
2023-01-06T21:39:52.949Z,21.98
2023-01-06T21:42:40.096Z,20.70
2023-01-06T21:45:10.690Z,20.70
2023-01-06T21:47:39.030Z,18.92
2023-01-06T21:50:08.931Z,18.08
2023-01-06T21:52:37.753Z,17.52
2023-01-06T21:55:06.936Z,15.52
2023-01-06T21:57:38.354Z,15.50
2023-01-06T22:00:10.806Z,14.65
2023-01-06T22:02:42.042Z,14.52
2023-01-06T22:05:10.857Z,13.80
2023-01-06T22:07:43.533Z,13.80
2023-01-06T22:10:13.603Z,14.00
2023-01-06T22:12:45.425Z,13.95
2023-01-06T22:15:15.100Z,13.75
2023-01-06T22:17:43.699Z,12.82
2023-01-06T22:20:14.917Z,14.10
2023-01-06T22:22:43.784Z,13.50
2023-01-06T22:25:12.235Z,13.48
2023-01-06T22:27:41.978Z,13.30
2023-01-06T22:30:11.931Z,13.30
2023-01-06T22:32:44.469Z,13.80
2023-01-06T22:35:14.539Z,12.38
2023-01-06T22:37:43.668Z,12.02
2023-01-06T22:40:14.587Z,12.38
2023-01-06T22:42:45.325Z,12.05
2023-01-06T22:47:42.602Z,11.15
2023-01-06T22:50:11.974Z,11.93
2023-01-06T22:52:40.306Z,11.40
2023-01-06T22:55:09.978Z,10.60
2023-01-06T22:57:38.361Z,10.82
2023-01-06T23:00:14.720Z,12.05
2023-01-06T23:02:43.551Z,11.75
2023-01-06T23:05:12.483Z,10.98
2023-01-06T23:07:43.974Z,12.63
2023-01-06T23:10:14.379Z,12.32
2023-01-06T23:12:44.233Z,14.13
2023-01-06T23:15:14.130Z,12.63
2023-01-06T23:17:42.540Z,15.80
2023-01-06T23:20:12.421Z,10.55
2023-01-06T23:22:41.003Z,11.02
2023-01-06T23:25:09.958Z,11.15
2023-01-06T23:27:38.831Z,11.55
2023-01-06T23:30:09.192Z,11.13
2023-01-06T23:32:39.050Z,11.70
2023-01-06T23:35:07.997Z,9.85
2023-01-06T23:37:36.387Z,10.52
2023-01-06T23:40:04.999Z,10.10
2023-01-06T23:42:37.417Z,10.05
2023-01-06T23:45:12.772Z,10.90
2023-01-06T23:47:42.481Z,13.93
2023-01-06T23:50:11.164Z,9.70
2023-01-06T23:52:39.485Z,9.73
2023-01-06T23:55:08.913Z,12.77
2023-01-06T23:57:37.282Z,9.60
